sensor_id;sensor_type;location;lat;lon;timestamp;P1;durP1;ratioP1;P2;durP2;ratioP2
2620;SDS011;1320;48.128;11.592;2024-01-30T00:01:51;17.83;;;8.60;;
2620;SDS011;1320;48.128;11.592;2024-01-30T00:04:17;11.17;;;7.03;;
2620;SDS011;1320;48.128;11.592;2024-01-30T00:06:43;12.50;;;7.63;;
2620;SDS011;1320;48.128;11.592;2024-01-30T00:09:09;11.00;;;7.05;;
2620;SDS011;1320;48.128;11.592;2024-01-30T00:11:38;11.70;;;7.70;;
2620;SDS011;1320;48.128;11.592;2024-01-30T00:14:04;14.13;;;8.80;;
2620;SDS011;1320;48.128;11.592;2024-01-30T00:16:30;15.23;;;8.43;;
2620;SDS011;1320;48.128;11.592;2024-01-30T00:18:56;14.73;;;7.45;;
2620;SDS011;1320;48.128;11.592;2024-01-30T00:21:21;14.70;;;7.53;;
2620;SDS011;1320;48.128;11.592;2024-01-30T00:23:47;13.27;;;7.30;;
2620;SDS011;1320;48.128;11.592;2024-01-30T00:26:13;12.13;;;7.37;;
2620;SDS011;1320;48.128;11.592;2024-01-30T00:28:40;14.52;;;7.85;;
2620;SDS011;1320;48.128;11.592;2024-01-30T00:31:06;14.70;;;7.65;;
2620;SDS011;1320;48.128;11.592;2024-01-30T00:33:32;14.60;;;8.30;;
2620;SDS011;1320;48.128;11.592;2024-01-30T00:35:58;14.00;;;7.00;;
2620;SDS011;1320;48.128;11.592;2024-01-30T00:38:23;11.67;;;6.90;;
2620;SDS011;1320;48.128;11.592;2024-01-30T00:40:49;14.83;;;7.77;;
2620;SDS011;1320;48.128;11.592;2024-01-30T00:43:15;15.10;;;7.07;;
2620;SDS011;1320;48.128;11.592;2024-01-30T00:45:41;11.50;;;7.07;;
2620;SDS011;1320;48.128;11.592;2024-01-30T00:48:08;11.35;;;6.25;;
2620;SDS011;1320;48.128;11.592;2024-01-30T00:50:35;11.07;;;6.10;;
2620;SDS011;1320;48.128;11.592;2024-01-30T00:53:01;13.30;;;6.60;;
2620;SDS011;1320;48.128;11.592;2024-01-30T00:55:27;10.20;;;6.63;;
2620;SDS011;1320;48.128;11.592;2024-01-30T00:57:52;9.83;;;5.97;;
2620;SDS011;1320;48.128;11.592;2024-01-30T01:00:18;11.43;;;5.87;;
2620;SDS011;1320;48.128;11.592;2024-01-30T01:02:45;11.52;;;6.22;;
2620;SDS011;1320;48.128;11.592;2024-01-30T01:05:11;12.67;;;6.23;;
2620;SDS011;1320;48.128;11.592;2024-01-30T01:07:37;10.47;;;5.80;;
2620;SDS011;1320;48.128;11.592;2024-01-30T01:10:03;12.13;;;7.20;;
2620;SDS011;1320;48.128;11.592;2024-01-30T01:12:29;15.07;;;6.65;;
2620;SDS011;1320;48.128;11.592;2024-01-30T01:14:54;9.20;;;5.47;;
2620;SDS011;1320;48.128;11.592;2024-01-30T01:17:20;13.17;;;5.53;;
2620;SDS011;1320;48.128;11.592;2024-01-30T01:19:46;13.53;;;5.33;;
2620;SDS011;1320;48.128;11.592;2024-01-30T01:22:12;15.50;;;5.70;;
2620;SDS011;1320;48.128;11.592;2024-01-30T01:24:37;12.30;;;7.23;;
2620;SDS011;1320;48.128;11.592;2024-01-30T01:27:03;12.53;;;6.40;;
2620;SDS011;1320;48.128;11.592;2024-01-30T01:29:30;12.85;;;7.20;;
2620;SDS011;1320;48.128;11.592;2024-01-30T01:31:56;15.03;;;6.70;;
2620;SDS011;1320;48.128;11.592;2024-01-30T01:34:22;9.77;;;6.13;;
2620;SDS011;1320;48.128;11.592;2024-01-30T01:36:51;16.30;;;6.07;;
2620;SDS011;1320;48.128;11.592;2024-01-30T01:39:17;12.10;;;6.60;;
2620;SDS011;1320;48.128;11.592;2024-01-30T01:41:43;15.27;;;6.82;;
2620;SDS011;1320;48.128;11.592;2024-01-30T01:44:08;10.93;;;6.03;;
2620;SDS011;1320;48.128;11.592;2024-01-30T01:46:34;10.52;;;5.78;;
2620;SDS011;1320;48.128;11.592;2024-01-30T01:49:04;11.93;;;6.60;;
2620;SDS011;1320;48.128;11.592;2024-01-30T01:51:31;10.00;;;6.05;;
2620;SDS011;1320;48.128;11.592;2024-01-30T01:54:01;11.10;;;6.20;;
2620;SDS011;1320;48.128;11.592;2024-01-30T01:56:31;12.35;;;5.70;;
2620;SDS011;1320;48.128;11.592;2024-01-30T01:59:05;9.95;;;6.40;;
2620;SDS011;1320;48.128;11.592;2024-01-30T02:01:32;13.45;;;5.93;;
2620;SDS011;1320;48.128;11.592;2024-01-30T02:03:59;11.60;;;6.93;;
2620;SDS011;1320;48.128;11.592;2024-01-30T02:06:26;11.27;;;6.53;;
2620;SDS011;1320;48.128;11.592;2024-01-30T02:08:52;10.57;;;6.13;;
2620;SDS011;1320;48.128;11.592;2024-01-30T02:11:18;9.73;;;5.60;;
2620;SDS011;1320;48.128;11.592;2024-01-30T02:13:45;10.13;;;6.72;;
2620;SDS011;1320;48.128;11.592;2024-01-30T02:16:11;11.83;;;6.60;;
2620;SDS011;1320;48.128;11.592;2024-01-30T02:18:36;10.93;;;5.83;;
2620;SDS011;1320;48.128;11.592;2024-01-30T02:21:07;13.95;;;6.78;;
2620;SDS011;1320;48.128;11.592;2024-01-30T02:23:32;10.77;;;5.60;;
2620;SDS011;1320;48.128;11.592;2024-01-30T02:25:59;11.80;;;6.95;;
2620;SDS011;1320;48.128;11.592;2024-01-30T02:28:25;10.80;;;6.70;;
2620;SDS011;1320;48.128;11.592;2024-01-30T02:30:51;13.57;;;6.73;;
2620;SDS011;1320;48.128;11.592;2024-01-30T02:33:16;11.70;;;6.10;;
2620;SDS011;1320;48.128;11.592;2024-01-30T02:35:42;12.70;;;7.17;;
2620;SDS011;1320;48.128;11.592;2024-01-30T02:38:08;9.60;;;5.93;;
2620;SDS011;1320;48.128;11.592;2024-01-30T02:40:33;16.10;;;6.90;;
2620;SDS011;1320;48.128;11.592;2024-01-30T02:42:59;11.33;;;5.90;;
2620;SDS011;1320;48.128;11.592;2024-01-30T02:45:26;9.98;;;5.32;;
2620;SDS011;1320;48.128;11.592;2024-01-30T02:47:52;10.83;;;6.20;;
2620;SDS011;1320;48.128;11.592;2024-01-30T02:50:18;12.07;;;6.53;;
2620;SDS011;1320;48.128;11.592;2024-01-30T02:52:43;10.37;;;5.63;;
2620;SDS011;1320;48.128;11.592;2024-01-30T02:55:09;12.03;;;6.10;;
2620;SDS011;1320;48.128;11.592;2024-01-30T02:57:36;11.68;;;6.30;;
2620;SDS011;1320;48.128;11.592;2024-01-30T03:00:02;11.05;;;5.68;;
2620;SDS011;1320;48.128;11.592;2024-01-30T03:02:29;9.55;;;5.05;;
2620;SDS011;1320;48.128;11.592;2024-01-30T03:04:54;15.00;;;6.97;;
2620;SDS011;1320;48.128;11.592;2024-01-30T03:07:20;9.80;;;5.50;;
2620;SDS011;1320;48.128;11.592;2024-01-30T03:09:46;13.13;;;5.97;;
2620;SDS011;1320;48.128;11.592;2024-01-30T03:12:11;14.20;;;7.73;;
2620;SDS011;1320;48.128;11.592;2024-01-30T03:14:37;12.20;;;5.90;;
2620;SDS011;1320;48.128;11.592;2024-01-30T03:17:03;8.30;;;4.83;;
2620;SDS011;1320;48.128;11.592;2024-01-30T03:19:28;14.03;;;6.63;;
2620;SDS011;1320;48.128;11.592;2024-01-30T03:21:54;10.90;;;5.27;;
2620;SDS011;1320;48.128;11.592;2024-01-30T03:24:20;10.13;;;5.30;;
2620;SDS011;1320;48.128;11.592;2024-01-30T03:26:45;10.50;;;5.57;;
2620;SDS011;1320;48.128;11.592;2024-01-30T03:29:11;11.33;;;4.50;;
2620;SDS011;1320;48.128;11.592;2024-01-30T03:31:37;9.00;;;4.20;;
2620;SDS011;1320;48.128;11.592;2024-01-30T03:34:04;9.55;;;4.82;;
2620;SDS011;1320;48.128;11.592;2024-01-30T03:36:29;10.63;;;5.03;;
2620;SDS011;1320;48.128;11.592;2024-01-30T03:38:57;10.18;;;4.88;;
2620;SDS011;1320;48.128;11.592;2024-01-30T03:41:23;10.67;;;5.07;;
2620;SDS011;1320;48.128;11.592;2024-01-30T03:43:49;7.43;;;3.77;;
2620;SDS011;1320;48.128;11.592;2024-01-30T03:46:15;11.00;;;4.88;;
2620;SDS011;1320;48.128;11.592;2024-01-30T03:48:41;8.90;;;4.13;;
2620;SDS011;1320;48.128;11.592;2024-01-30T03:51:07;8.30;;;4.77;;
2620;SDS011;1320;48.128;11.592;2024-01-30T03:53:33;8.45;;;4.35;;
2620;SDS011;1320;48.128;11.592;2024-01-30T03:55:59;8.20;;;4.37;;
2620;SDS011;1320;48.128;11.592;2024-01-30T03:58:25;7.97;;;4.53;;
2620;SDS011;1320;48.128;11.592;2024-01-30T04:00:50;20.73;;;5.00;;
2620;SDS011;1320;48.128;11.592;2024-01-30T04:03:16;11.15;;;4.97;;
2620;SDS011;1320;48.128;11.592;2024-01-30T04:05:42;8.33;;;4.70;;
2620;SDS011;1320;48.128;11.592;2024-01-30T04:08:08;8.33;;;4.10;;
2620;SDS011;1320;48.128;11.592;2024-01-30T04:10:39;8.27;;;4.50;;
2620;SDS011;1320;48.128;11.592;2024-01-30T04:13:05;10.20;;;4.43;;
2620;SDS011;1320;48.128;11.592;2024-01-30T04:15:31;19.07;;;4.70;;
2620;SDS011;1320;48.128;11.592;2024-01-30T04:17:57;9.82;;;4.00;;
2620;SDS011;1320;48.128;11.592;2024-01-30T04:20:24;8.50;;;3.13;;
2620;SDS011;1320;48.128;11.592;2024-01-30T04:22:50;6.70;;;3.63;;
2620;SDS011;1320;48.128;11.592;2024-01-30T04:25:16;8.50;;;4.30;;
2620;SDS011;1320;48.128;11.592;2024-01-30T04:27:42;8.13;;;4.07;;
2620;SDS011;1320;48.128;11.592;2024-01-30T04:30:08;8.30;;;4.60;;
2620;SDS011;1320;48.128;11.592;2024-01-30T04:32:34;11.45;;;4.20;;
2620;SDS011;1320;48.128;11.592;2024-01-30T04:35:01;7.07;;;3.95;;
2620;SDS011;1320;48.128;11.592;2024-01-30T04:37:26;9.20;;;3.63;;
2620;SDS011;1320;48.128;11.592;2024-01-30T04:39:52;11.07;;;4.40;;
2620;SDS011;1320;48.128;11.592;2024-01-30T04:42:18;7.40;;;3.83;;
2620;SDS011;1320;48.128;11.592;2024-01-30T04:44:44;7.93;;;4.10;;
2620;SDS011;1320;48.128;11.592;2024-01-30T04:47:09;8.07;;;3.47;;
2620;SDS011;1320;48.128;11.592;2024-01-30T04:49:38;8.70;;;4.18;;
2620;SDS011;1320;48.128;11.592;2024-01-30T04:52:07;11.10;;;3.67;;
2620;SDS011;1320;48.128;11.592;2024-01-30T04:54:34;8.50;;;4.40;;
2620;SDS011;1320;48.128;11.592;2024-01-30T04:57:00;8.88;;;4.85;;
2620;SDS011;1320;48.128;11.592;2024-01-30T04:59:26;9.43;;;4.70;;
2620;SDS011;1320;48.128;11.592;2024-01-30T05:01:52;16.43;;;4.80;;
2620;SDS011;1320;48.128;11.592;2024-01-30T05:04:18;9.30;;;4.60;;
2620;SDS011;1320;48.128;11.592;2024-01-30T05:06:44;9.83;;;3.80;;
2620;SDS011;1320;48.128;11.592;2024-01-30T05:09:10;8.50;;;3.80;;
2620;SDS011;1320;48.128;11.592;2024-01-30T05:11:36;6.90;;;3.92;;
2620;SDS011;1320;48.128;11.592;2024-01-30T05:14:06;8.57;;;4.05;;
2620;SDS011;1320;48.128;11.592;2024-01-30T05:16:32;8.13;;;3.97;;
2620;SDS011;1320;48.128;11.592;2024-01-30T05:18:58;7.60;;;4.33;;
2620;SDS011;1320;48.128;11.592;2024-01-30T05:21:24;7.60;;;4.32;;
2620;SDS011;1320;48.128;11.592;2024-01-30T05:23:50;12.00;;;4.37;;
2620;SDS011;1320;48.128;11.592;2024-01-30T05:26:15;8.47;;;4.07;;
2620;SDS011;1320;48.128;11.592;2024-01-30T05:28:41;8.67;;;4.50;;
2620;SDS011;1320;48.128;11.592;2024-01-30T05:31:09;10.98;;;5.00;;
2620;SDS011;1320;48.128;11.592;2024-01-30T05:33:35;9.95;;;4.43;;
2620;SDS011;1320;48.128;11.592;2024-01-30T05:36:01;7.83;;;4.13;;
2620;SDS011;1320;48.128;11.592;2024-01-30T05:38:27;8.07;;;4.13;;
2620;SDS011;1320;48.128;11.592;2024-01-30T05:40:56;8.00;;;4.47;;
2620;SDS011;1320;48.128;11.592;2024-01-30T05:43:25;9.80;;;4.38;;
2620;SDS011;1320;48.128;11.592;2024-01-30T05:45:51;10.87;;;3.60;;
2620;SDS011;1320;48.128;11.592;2024-01-30T05:48:17;6.90;;;3.72;;
2620;SDS011;1320;48.128;11.592;2024-01-30T05:50:43;10.13;;;4.50;;
2620;SDS011;1320;48.128;11.592;2024-01-30T05:53:10;7.32;;;4.03;;
2620;SDS011;1320;48.128;11.592;2024-01-30T05:55:35;15.03;;;5.20;;
2620;SDS011;1320;48.128;11.592;2024-01-30T05:58:01;9.17;;;4.10;;
2620;SDS011;1320;48.128;11.592;2024-01-30T06:00:27;9.40;;;3.97;;
2620;SDS011;1320;48.128;11.592;2024-01-30T06:02:53;7.73;;;4.10;;
2620;SDS011;1320;48.128;11.592;2024-01-30T06:05:18;7.20;;;4.47;;
2620;SDS011;1320;48.128;11.592;2024-01-30T06:07:44;9.20;;;4.10;;
2620;SDS011;1320;48.128;11.592;2024-01-30T06:10:10;8.93;;;4.23;;
2620;SDS011;1320;48.128;11.592;2024-01-30T06:12:36;8.43;;;3.63;;
2620;SDS011;1320;48.128;11.592;2024-01-30T06:15:02;8.85;;;3.80;;
2620;SDS011;1320;48.128;11.592;2024-01-30T06:17:28;9.15;;;4.43;;
2620;SDS011;1320;48.128;11.592;2024-01-30T06:19:54;7.53;;;4.23;;
2620;SDS011;1320;48.128;11.592;2024-01-30T06:22:20;10.57;;;4.77;;
2620;SDS011;1320;48.128;11.592;2024-01-30T06:24:45;6.57;;;3.60;;
2620;SDS011;1320;48.128;11.592;2024-01-30T06:27:13;8.73;;;4.82;;
2620;SDS011;1320;48.128;11.592;2024-01-30T06:29:40;6.85;;;3.63;;
2620;SDS011;1320;48.128;11.592;2024-01-30T06:32:08;11.68;;;4.68;;
2620;SDS011;1320;48.128;11.592;2024-01-30T06:34:34;6.80;;;3.43;;
2620;SDS011;1320;48.128;11.592;2024-01-30T06:36:59;11.17;;;4.40;;
2620;SDS011;1320;48.128;11.592;2024-01-30T06:39:26;9.33;;;3.43;;
2620;SDS011;1320;48.128;11.592;2024-01-30T06:41:52;12.88;;;3.80;;
2620;SDS011;1320;48.128;11.592;2024-01-30T06:44:17;11.73;;;5.50;;
2620;SDS011;1320;48.128;11.592;2024-01-30T06:46:43;7.83;;;3.17;;
2620;SDS011;1320;48.128;11.592;2024-01-30T06:49:09;6.53;;;3.63;;
2620;SDS011;1320;48.128;11.592;2024-01-30T06:51:34;10.23;;;4.97;;
2620;SDS011;1320;48.128;11.592;2024-01-30T06:54:00;7.83;;;3.70;;
2620;SDS011;1320;48.128;11.592;2024-01-30T06:56:26;13.83;;;5.83;;
2620;SDS011;1320;48.128;11.592;2024-01-30T06:58:52;8.17;;;3.07;;
2620;SDS011;1320;48.128;11.592;2024-01-30T07:01:17;9.80;;;3.80;;
2620;SDS011;1320;48.128;11.592;2024-01-30T07:03:43;11.13;;;3.93;;
2620;SDS011;1320;48.128;11.592;2024-01-30T07:06:09;11.83;;;4.20;;
2620;SDS011;1320;48.128;11.592;2024-01-30T07:08:38;9.32;;;4.15;;
2620;SDS011;1320;48.128;11.592;2024-01-30T07:11:07;24.93;;;5.87;;
2620;SDS011;1320;48.128;11.592;2024-01-30T07:13:33;9.25;;;4.10;;
2620;SDS011;1320;48.128;11.592;2024-01-30T07:15:59;8.45;;;3.75;;
2620;SDS011;1320;48.128;11.592;2024-01-30T07:18:25;9.67;;;4.87;;
2620;SDS011;1320;48.128;11.592;2024-01-30T07:20:50;21.67;;;3.70;;
2620;SDS011;1320;48.128;11.592;2024-01-30T07:23:16;8.67;;;4.10;;
2620;SDS011;1320;48.128;11.592;2024-01-30T07:25:46;10.63;;;4.30;;
2620;SDS011;1320;48.128;11.592;2024-01-30T07:28:13;15.43;;;4.65;;
2620;SDS011;1320;48.128;11.592;2024-01-30T07:30:42;10.05;;;3.85;;
2620;SDS011;1320;48.128;11.592;2024-01-30T07:33:07;10.23;;;4.65;;
2620;SDS011;1320;48.128;11.592;2024-01-30T07:35:33;9.50;;;3.70;;
2620;SDS011;1320;48.128;11.592;2024-01-30T07:37:59;10.25;;;3.75;;
2620;SDS011;1320;48.128;11.592;2024-01-30T07:40:25;9.50;;;3.73;;
2620;SDS011;1320;48.128;11.592;2024-01-30T07:42:52;16.90;;;4.30;;
2620;SDS011;1320;48.128;11.592;2024-01-30T07:45:18;7.72;;;3.80;;
2620;SDS011;1320;48.128;11.592;2024-01-30T07:47:51;8.60;;;4.40;;
2620;SDS011;1320;48.128;11.592;2024-01-30T07:50:17;9.02;;;3.90;;
2620;SDS011;1320;48.128;11.592;2024-01-30T07:52:42;8.33;;;3.83;;
2620;SDS011;1320;48.128;11.592;2024-01-30T07:55:09;14.20;;;4.20;;
2620;SDS011;1320;48.128;11.592;2024-01-30T07:57:34;16.17;;;4.40;;
2620;SDS011;1320;48.128;11.592;2024-01-30T08:00:00;11.50;;;4.00;;
2620;SDS011;1320;48.128;11.592;2024-01-30T08:02:27;8.52;;;4.10;;
2620;SDS011;1320;48.128;11.592;2024-01-30T08:04:53;9.17;;;4.10;;
2620;SDS011;1320;48.128;11.592;2024-01-30T08:07:19;8.60;;;4.73;;
2620;SDS011;1320;48.128;11.592;2024-01-30T08:09:47;9.65;;;5.60;;
2620;SDS011;1320;48.128;11.592;2024-01-30T08:12:12;9.27;;;4.60;;
2620;SDS011;1320;48.128;11.592;2024-01-30T08:14:38;13.45;;;4.95;;
2620;SDS011;1320;48.128;11.592;2024-01-30T08:17:06;10.82;;;5.18;;
2620;SDS011;1320;48.128;11.592;2024-01-30T08:19:32;16.02;;;5.78;;
2620;SDS011;1320;48.128;11.592;2024-01-30T08:21:58;10.88;;;5.45;;
2620;SDS011;1320;48.128;11.592;2024-01-30T08:24:24;10.67;;;5.23;;
2620;SDS011;1320;48.128;11.592;2024-01-30T08:26:50;11.50;;;5.17;;
2620;SDS011;1320;48.128;11.592;2024-01-30T08:29:15;7.97;;;3.60;;
2620;SDS011;1320;48.128;11.592;2024-01-30T08:31:41;11.40;;;4.43;;
2620;SDS011;1320;48.128;11.592;2024-01-30T08:34:07;8.17;;;3.87;;
2620;SDS011;1320;48.128;11.592;2024-01-30T08:36:33;8.87;;;3.70;;
2620;SDS011;1320;48.128;11.592;2024-01-30T08:38:59;6.87;;;3.57;;
2620;SDS011;1320;48.128;11.592;2024-01-30T08:41:24;6.80;;;3.57;;
2620;SDS011;1320;48.128;11.592;2024-01-30T08:43:50;10.30;;;4.60;;
2620;SDS011;1320;48.128;11.592;2024-01-30T08:46:19;12.13;;;5.07;;
2620;SDS011;1320;48.128;11.592;2024-01-30T08:48:46;9.50;;;4.80;;
2620;SDS011;1320;48.128;11.592;2024-01-30T08:51:12;11.80;;;5.30;;
2620;SDS011;1320;48.128;11.592;2024-01-30T08:53:38;9.43;;;4.73;;
2620;SDS011;1320;48.128;11.592;2024-01-30T08:56:05;8.90;;;4.60;;
2620;SDS011;1320;48.128;11.592;2024-01-30T08:58:31;10.37;;;4.93;;
2620;SDS011;1320;48.128;11.592;2024-01-30T09:00:57;14.00;;;6.27;;
2620;SDS011;1320;48.128;11.592;2024-01-30T09:03:23;10.87;;;4.60;;
2620;SDS011;1320;48.128;11.592;2024-01-30T09:05:49;8.57;;;4.07;;
2620;SDS011;1320;48.128;11.592;2024-01-30T09:08:15;11.60;;;4.70;;
2620;SDS011;1320;48.128;11.592;2024-01-30T09:10:41;10.53;;;3.90;;
2620;SDS011;1320;48.128;11.592;2024-01-30T09:13:06;8.43;;;4.30;;
2620;SDS011;1320;48.128;11.592;2024-01-30T09:15:32;11.20;;;4.70;;
2620;SDS011;1320;48.128;11.592;2024-01-30T09:17:58;10.23;;;4.13;;
2620;SDS011;1320;48.128;11.592;2024-01-30T09:20:24;6.93;;;4.17;;
2620;SDS011;1320;48.128;11.592;2024-01-30T09:22:50;6.97;;;3.60;;
2620;SDS011;1320;48.128;11.592;2024-01-30T09:25:16;6.43;;;4.20;;
2620;SDS011;1320;48.128;11.592;2024-01-30T09:27:43;10.20;;;4.17;;
2620;SDS011;1320;48.128;11.592;2024-01-30T09:30:09;50.07;;;7.63;;
2620;SDS011;1320;48.128;11.592;2024-01-30T09:32:35;12.50;;;5.50;;
2620;SDS011;1320;48.128;11.592;2024-01-30T09:35:01;55.30;;;9.20;;
2620;SDS011;1320;48.128;11.592;2024-01-30T09:37:27;43.20;;;8.83;;
2620;SDS011;1320;48.128;11.592;2024-01-30T09:39:56;39.00;;;8.70;;
2620;SDS011;1320;48.128;11.592;2024-01-30T09:45:03;31.10;;;7.67;;
2620;SDS011;1320;48.128;11.592;2024-01-30T09:47:31;20.77;;;6.53;;
2620;SDS011;1320;48.128;11.592;2024-01-30T09:50:02;15.43;;;6.33;;
2620;SDS011;1320;48.128;11.592;2024-01-30T09:52:31;5.93;;;3.60;;
2620;SDS011;1320;48.128;11.592;2024-01-30T09:54:57;12.33;;;5.43;;
2620;SDS011;1320;48.128;11.592;2024-01-30T09:57:25;8.60;;;3.77;;
2620;SDS011;1320;48.128;11.592;2024-01-30T09:59:51;11.33;;;4.27;;
2620;SDS011;1320;48.128;11.592;2024-01-30T10:02:19;5.90;;;3.00;;
2620;SDS011;1320;48.128;11.592;2024-01-30T10:04:47;6.60;;;3.47;;
2620;SDS011;1320;48.128;11.592;2024-01-30T10:07:14;5.83;;;3.03;;
2620;SDS011;1320;48.128;11.592;2024-01-30T10:09:40;6.87;;;3.47;;
2620;SDS011;1320;48.128;11.592;2024-01-30T10:12:05;6.57;;;3.00;;
2620;SDS011;1320;48.128;11.592;2024-01-30T10:14:32;8.43;;;3.67;;
2620;SDS011;1320;48.128;11.592;2024-01-30T10:16:58;12.53;;;4.43;;
2620;SDS011;1320;48.128;11.592;2024-01-30T10:19:26;6.23;;;4.67;;
2620;SDS011;1320;48.128;11.592;2024-01-30T10:21:52;6.37;;;3.40;;
2620;SDS011;1320;48.128;11.592;2024-01-30T10:24:18;5.90;;;3.20;;
2620;SDS011;1320;48.128;11.592;2024-01-30T10:26:44;5.53;;;2.77;;
2620;SDS011;1320;48.128;11.592;2024-01-30T10:29:09;5.00;;;2.53;;
2620;SDS011;1320;48.128;11.592;2024-01-30T10:31:35;12.23;;;3.07;;
2620;SDS011;1320;48.128;11.592;2024-01-30T10:34:01;6.43;;;2.90;;
2620;SDS011;1320;48.128;11.592;2024-01-30T10:36:30;8.13;;;2.90;;
2620;SDS011;1320;48.128;11.592;2024-01-30T10:39:00;6.20;;;2.80;;
2620;SDS011;1320;48.128;11.592;2024-01-30T10:41:26;6.13;;;2.80;;
2620;SDS011;1320;48.128;11.592;2024-01-30T10:46:49;6.00;;;3.30;;
2620;SDS011;1320;48.128;11.592;2024-01-30T10:49:21;6.87;;;3.90;;
2620;SDS011;1320;48.128;11.592;2024-01-30T10:51:48;6.27;;;3.13;;
2620;SDS011;1320;48.128;11.592;2024-01-30T10:54:15;7.10;;;2.80;;
2620;SDS011;1320;48.128;11.592;2024-01-30T10:56:42;7.03;;;2.70;;
2620;SDS011;1320;48.128;11.592;2024-01-30T10:59:09;7.00;;;3.00;;
2620;SDS011;1320;48.128;11.592;2024-01-30T11:01:35;7.77;;;2.80;;
2620;SDS011;1320;48.128;11.592;2024-01-30T11:04:01;9.17;;;3.70;;
2620;SDS011;1320;48.128;11.592;2024-01-30T11:06:27;11.30;;;3.50;;
2620;SDS011;1320;48.128;11.592;2024-01-30T11:09:03;7.93;;;3.30;;
2620;SDS011;1320;48.128;11.592;2024-01-30T11:14:37;6.23;;;3.70;;
2620;SDS011;1320;48.128;11.592;2024-01-30T11:17:05;12.40;;;4.50;;
2620;SDS011;1320;48.128;11.592;2024-01-30T11:19:31;5.53;;;3.47;;
2620;SDS011;1320;48.128;11.592;2024-01-30T11:21:58;11.43;;;4.30;;
2620;SDS011;1320;48.128;11.592;2024-01-30T11:24:25;7.30;;;3.80;;
2620;SDS011;1320;48.128;11.592;2024-01-30T11:26:58;7.17;;;3.40;;
2620;SDS011;1320;48.128;11.592;2024-01-30T11:29:27;8.60;;;3.90;;
2620;SDS011;1320;48.128;11.592;2024-01-30T11:31:53;8.50;;;5.30;;
2620;SDS011;1320;48.128;11.592;2024-01-30T11:34:20;6.10;;;3.37;;
2620;SDS011;1320;48.128;11.592;2024-01-30T11:36:55;9.30;;;3.73;;
2620;SDS011;1320;48.128;11.592;2024-01-30T11:39:28;6.00;;;2.80;;
2620;SDS011;1320;48.128;11.592;2024-01-30T11:41:54;5.27;;;3.00;;
2620;SDS011;1320;48.128;11.592;2024-01-30T11:44:21;5.07;;;2.47;;
2620;SDS011;1320;48.128;11.592;2024-01-30T11:46:51;4.70;;;2.60;;
2620;SDS011;1320;48.128;11.592;2024-01-30T11:49:17;4.70;;;2.63;;
2620;SDS011;1320;48.128;11.592;2024-01-30T11:51:46;5.93;;;3.00;;
2620;SDS011;1320;48.128;11.592;2024-01-30T11:54:15;7.23;;;2.77;;
2620;SDS011;1320;48.128;11.592;2024-01-30T11:56:41;8.07;;;3.30;;
2620;SDS011;1320;48.128;11.592;2024-01-30T11:59:08;12.97;;;3.63;;
2620;SDS011;1320;48.128;11.592;2024-01-30T12:01:34;4.80;;;3.00;;
2620;SDS011;1320;48.128;11.592;2024-01-30T12:04:01;5.93;;;2.63;;
2620;SDS011;1320;48.128;11.592;2024-01-30T12:06:28;5.50;;;2.20;;
2620;SDS011;1320;48.128;11.592;2024-01-30T12:08:57;6.20;;;2.70;;
2620;SDS011;1320;48.128;11.592;2024-01-30T12:11:24;12.43;;;3.00;;
2620;SDS011;1320;48.128;11.592;2024-01-30T12:13:51;5.80;;;2.70;;
2620;SDS011;1320;48.128;11.592;2024-01-30T12:16:17;7.73;;;3.03;;
2620;SDS011;1320;48.128;11.592;2024-01-30T12:18:43;4.70;;;2.17;;
2620;SDS011;1320;48.128;11.592;2024-01-30T12:21:09;7.50;;;3.77;;
2620;SDS011;1320;48.128;11.592;2024-01-30T12:23:35;5.60;;;2.90;;
2620;SDS011;1320;48.128;11.592;2024-01-30T12:26:01;5.20;;;2.67;;
2620;SDS011;1320;48.128;11.592;2024-01-30T12:28:28;7.07;;;2.37;;
2620;SDS011;1320;48.128;11.592;2024-01-30T12:33:28;11.50;;;4.87;;
2620;SDS011;1320;48.128;11.592;2024-01-30T12:35:55;5.83;;;3.20;;
2620;SDS011;1320;48.128;11.592;2024-01-30T12:38:26;6.70;;;3.20;;
2620;SDS011;1320;48.128;11.592;2024-01-30T12:40:55;6.00;;;2.80;;
2620;SDS011;1320;48.128;11.592;2024-01-30T12:43:21;8.20;;;2.90;;
2620;SDS011;1320;48.128;11.592;2024-01-30T12:45:48;5.50;;;2.67;;
2620;SDS011;1320;48.128;11.592;2024-01-30T12:48:15;6.47;;;2.50;;
2620;SDS011;1320;48.128;11.592;2024-01-30T12:50:42;6.23;;;3.10;;
2620;SDS011;1320;48.128;11.592;2024-01-30T12:53:08;9.43;;;2.90;;
2620;SDS011;1320;48.128;11.592;2024-01-30T12:55:34;9.20;;;3.10;;
2620;SDS011;1320;48.128;11.592;2024-01-30T12:58:00;5.10;;;2.70;;
2620;SDS011;1320;48.128;11.592;2024-01-30T13:00:26;5.23;;;2.90;;
2620;SDS011;1320;48.128;11.592;2024-01-30T13:02:52;10.13;;;3.30;;
2620;SDS011;1320;48.128;11.592;2024-01-30T13:05:17;8.03;;;3.03;;
2620;SDS011;1320;48.128;11.592;2024-01-30T13:07:43;7.70;;;2.87;;
2620;SDS011;1320;48.128;11.592;2024-01-30T13:10:09;7.00;;;2.80;;
2620;SDS011;1320;48.128;11.592;2024-01-30T13:12:35;10.83;;;3.30;;
2620;SDS011;1320;48.128;11.592;2024-01-30T13:15:02;5.90;;;2.80;;
2620;SDS011;1320;48.128;11.592;2024-01-30T13:17:29;9.70;;;3.40;;
2620;SDS011;1320;48.128;11.592;2024-01-30T13:19:55;8.33;;;3.03;;
2620;SDS011;1320;48.128;11.592;2024-01-30T13:22:21;6.00;;;3.03;;
2620;SDS011;1320;48.128;11.592;2024-01-30T13:24:47;7.03;;;2.80;;
2620;SDS011;1320;48.128;11.592;2024-01-30T13:27:13;6.00;;;3.57;;
2620;SDS011;1320;48.128;11.592;2024-01-30T13:29:38;8.13;;;3.77;;
2620;SDS011;1320;48.128;11.592;2024-01-30T13:32:04;9.10;;;3.97;;
2620;SDS011;1320;48.128;11.592;2024-01-30T13:34:30;10.13;;;2.63;;
2620;SDS011;1320;48.128;11.592;2024-01-30T13:36:56;7.27;;;2.67;;
2620;SDS011;1320;48.128;11.592;2024-01-30T13:39:22;9.33;;;2.50;;
2620;SDS011;1320;48.128;11.592;2024-01-30T13:41:48;7.07;;;2.37;;
2620;SDS011;1320;48.128;11.592;2024-01-30T13:44:15;7.00;;;2.77;;
2620;SDS011;1320;48.128;11.592;2024-01-30T13:46:42;9.53;;;3.73;;
2620;SDS011;1320;48.128;11.592;2024-01-30T13:49:08;10.83;;;4.13;;
2620;SDS011;1320;48.128;11.592;2024-01-30T13:51:34;8.10;;;3.40;;
2620;SDS011;1320;48.128;11.592;2024-01-30T13:53:59;6.63;;;2.63;;
2620;SDS011;1320;48.128;11.592;2024-01-30T13:56:25;11.20;;;4.40;;
2620;SDS011;1320;48.128;11.592;2024-01-30T13:58:52;11.67;;;3.97;;
2620;SDS011;1320;48.128;11.592;2024-01-30T14:01:17;7.37;;;2.33;;
2620;SDS011;1320;48.128;11.592;2024-01-30T14:03:43;10.20;;;3.30;;
2620;SDS011;1320;48.128;11.592;2024-01-30T14:06:09;6.53;;;3.13;;
2620;SDS011;1320;48.128;11.592;2024-01-30T14:08:35;8.40;;;3.17;;
2620;SDS011;1320;48.128;11.592;2024-01-30T14:11:01;5.77;;;2.13;;
2620;SDS011;1320;48.128;11.592;2024-01-30T14:13:27;6.73;;;3.43;;
2620;SDS011;1320;48.128;11.592;2024-01-30T14:15:52;4.77;;;2.57;;
2620;SDS011;1320;48.128;11.592;2024-01-30T14:18:19;5.03;;;2.33;;
2620;SDS011;1320;48.128;11.592;2024-01-30T14:20:44;8.20;;;2.27;;
2620;SDS011;1320;48.128;11.592;2024-01-30T14:23:10;5.23;;;1.90;;
2620;SDS011;1320;48.128;11.592;2024-01-30T14:25:36;4.47;;;2.20;;
2620;SDS011;1320;48.128;11.592;2024-01-30T14:28:01;4.37;;;2.53;;
2620;SDS011;1320;48.128;11.592;2024-01-30T14:30:27;10.33;;;2.63;;
2620;SDS011;1320;48.128;11.592;2024-01-30T14:32:52;4.43;;;2.30;;
2620;SDS011;1320;48.128;11.592;2024-01-30T14:35:19;5.60;;;2.40;;
2620;SDS011;1320;48.128;11.592;2024-01-30T14:37:45;6.33;;;2.87;;
2620;SDS011;1320;48.128;11.592;2024-01-30T14:40:11;10.70;;;3.00;;
2620;SDS011;1320;48.128;11.592;2024-01-30T14:42:36;5.80;;;3.07;;
2620;SDS011;1320;48.128;11.592;2024-01-30T14:45:03;5.53;;;3.27;;
2620;SDS011;1320;48.128;11.592;2024-01-30T14:47:29;9.87;;;2.60;;
2620;SDS011;1320;48.128;11.592;2024-01-30T14:49:56;4.77;;;2.43;;
2620;SDS011;1320;48.128;11.592;2024-01-30T14:52:22;8.90;;;3.10;;
2620;SDS011;1320;48.128;11.592;2024-01-30T14:54:48;7.80;;;2.50;;
2620;SDS011;1320;48.128;11.592;2024-01-30T14:57:14;6.47;;;2.73;;
2620;SDS011;1320;48.128;11.592;2024-01-30T14:59:40;8.40;;;3.70;;
2620;SDS011;1320;48.128;11.592;2024-01-30T15:02:06;5.67;;;2.97;;